Vero Beach Municipal Airport Vero Beach US
ICAO: KVRB
IATA: VRB
Category: Medium
Scheduled Services: No

Elevation: 24 ft
TransAlt. 18000 ft.

Airport Communications:
ATIS:132.5
CLNC DEL:124.25
MIAMI CNTR:132.25
CTAF:126.3
GND:127.45
ST PETERSBURG RDO:122.2
TWR:126.3
UNICOM:122.95

KVRB Zoom In..

If you have problems with the map follow the link
https://www.worldairports.se/pages/airport.php?
ICAO=KVRB

Runways:

(A) RW 04 length 4974 ft width 100 ft
---- / hdg 43

(B) RW 11L length 3504 ft width 75 ft
---- / hdg 118

(C) RW 11R length 7314 ft width 106 ft
---- / hdg 118

(D) RW 22 length 4974 ft width 100 ft
---- / hdg 223

(E) RW 29L length 7314 ft width 106 ft
---- / hdg 298

(F) RW 29R length 3504 ft width 75 ft
---- / hdg 298

Location; KVRB
Day. 14 / Time. 03.53 Zulu
* Altimeter: 29.84
* Temperature: 22° c. 71.6°f.
* Wind from: VRB Speed B kn.
Dewpoint: 20° c.
Visibility: 10 Statute Miles.
Clouds: Clear (automated report).

KVRB 140353Z AUTO 19005KT 10SM CLR 22/20 A2984 RMK AO2 SLP102 T02220200


Wind From KVR°
Speed B kn.

 
 
jpsmedia worldairports.se 2019   terms of use